sensor_id;sensor_type;location;lat;lon;timestamp;temperature;humidity
15656;DHT22;7928;43.614;1.456;2023-02-23T00:01:11;11.80;99.90
15656;DHT22;7928;43.614;1.456;2023-02-23T00:03:38;11.70;99.90
15656;DHT22;7928;43.614;1.456;2023-02-23T00:06:07;11.60;99.90
15656;DHT22;7928;43.614;1.456;2023-02-23T00:08:35;11.60;99.90
15656;DHT22;7928;43.614;1.456;2023-02-23T00:11:05;11.50;99.90
15656;DHT22;7928;43.614;1.456;2023-02-23T00:13:33;11.50;99.90
15656;DHT22;7928;43.614;1.456;2023-02-23T00:16:07;11.50;99.90
15656;DHT22;7928;43.614;1.456;2023-02-23T00:18:37;11.50;99.90
15656;DHT22;7928;43.614;1.456;2023-02-23T00:21:13;11.50;99.90
15656;DHT22;7928;43.614;1.456;2023-02-23T00:23:42;11.40;99.90
15656;DHT22;7928;43.614;1.456;2023-02-23T00:26:11;11.40;99.90
15656;DHT22;7928;43.614;1.456;2023-02-23T00:28:39;11.40;99.90
15656;DHT22;7928;43.614;1.456;2023-02-23T00:31:08;11.40;99.90
15656;DHT22;7928;43.614;1.456;2023-02-23T00:33:36;11.40;99.90
15656;DHT22;7928;43.614;1.456;2023-02-23T00:36:04;11.30;99.90
15656;DHT22;7928;43.614;1.456;2023-02-23T00:38:33;11.30;99.90
15656;DHT22;7928;43.614;1.456;2023-02-23T00:41:04;11.40;99.90
15656;DHT22;7928;43.614;1.456;2023-02-23T00:43:35;11.40;99.90
15656;DHT22;7928;43.614;1.456;2023-02-23T00:46:03;11.40;99.90
15656;DHT22;7928;43.614;1.456;2023-02-23T00:48:33;11.40;99.90
15656;DHT22;7928;43.614;1.456;2023-02-23T00:51:02;11.40;99.90
15656;DHT22;7928;43.614;1.456;2023-02-23T00:53:30;11.40;99.90
15656;DHT22;7928;43.614;1.456;2023-02-23T00:55:58;11.30;99.90
15656;DHT22;7928;43.614;1.456;2023-02-23T00:58:26;11.30;99.90
15656;DHT22;7928;43.614;1.456;2023-02-23T01:00:54;11.30;99.90
15656;DHT22;7928;43.614;1.456;2023-02-23T01:03:24;11.30;99.90
15656;DHT22;7928;43.614;1.456;2023-02-23T01:05:51;11.30;99.90
15656;DHT22;7928;43.614;1.456;2023-02-23T01:08:20;11.30;99.90
15656;DHT22;7928;43.614;1.456;2023-02-23T01:10:47;11.30;99.90
15656;DHT22;7928;43.614;1.456;2023-02-23T01:13:18;11.30;99.90
15656;DHT22;7928;43.614;1.456;2023-02-23T01:15:46;11.30;99.90
15656;DHT22;7928;43.614;1.456;2023-02-23T01:18:16;11.20;99.90
15656;DHT22;7928;43.614;1.456;2023-02-23T01:20:44;11.30;99.90
15656;DHT22;7928;43.614;1.456;2023-02-23T01:23:12;11.30;99.90
15656;DHT22;7928;43.614;1.456;2023-02-23T01:25:41;11.30;99.90
15656;DHT22;7928;43.614;1.456;2023-02-23T01:28:08;11.30;99.90
15656;DHT22;7928;43.614;1.456;2023-02-23T01:30:35;11.20;99.90
15656;DHT22;7928;43.614;1.456;2023-02-23T01:33:02;11.20;99.90
15656;DHT22;7928;43.614;1.456;2023-02-23T01:35:31;11.20;99.90
15656;DHT22;7928;43.614;1.456;2023-02-23T01:37:58;11.20;99.90
15656;DHT22;7928;43.614;1.456;2023-02-23T01:40:26;11.20;99.90
15656;DHT22;7928;43.614;1.456;2023-02-23T01:42:58;11.20;99.90
15656;DHT22;7928;43.614;1.456;2023-02-23T01:45:30;11.10;99.90
15656;DHT22;7928;43.614;1.456;2023-02-23T01:48:03;11.10;99.90
15656;DHT22;7928;43.614;1.456;2023-02-23T01:50:38;11.10;99.90
15656;DHT22;7928;43.614;1.456;2023-02-23T01:53:07;11.00;99.90
15656;DHT22;7928;43.614;1.456;2023-02-23T01:55:34;11.00;99.90
15656;DHT22;7928;43.614;1.456;2023-02-23T01:58:06;10.90;99.90
15656;DHT22;7928;43.614;1.456;2023-02-23T02:00:41;10.90;99.90
15656;DHT22;7928;43.614;1.456;2023-02-23T02:03:11;10.80;99.90
15656;DHT22;7928;43.614;1.456;2023-02-23T02:05:41;10.80;99.90
15656;DHT22;7928;43.614;1.456;2023-02-23T02:08:10;10.70;99.90
15656;DHT22;7928;43.614;1.456;2023-02-23T02:10:37;10.70;99.90
15656;DHT22;7928;43.614;1.456;2023-02-23T02:13:17;10.70;99.90
15656;DHT22;7928;43.614;1.456;2023-02-23T02:19:09;10.60;99.90
15656;DHT22;7928;43.614;1.456;2023-02-23T02:22:07;10.60;99.90
15656;DHT22;7928;43.614;1.456;2023-02-23T02:25:09;10.60;99.90
15656;DHT22;7928;43.614;1.456;2023-02-23T02:27:58;10.60;99.90
15656;DHT22;7928;43.614;1.456;2023-02-23T02:30:46;10.60;99.90
15656;DHT22;7928;43.614;1.456;2023-02-23T02:39:25;10.60;99.90
15656;DHT22;7928;43.614;1.456;2023-02-23T02:42:07;10.60;99.90
15656;DHT22;7928;43.614;1.456;2023-02-23T02:44:44;10.50;99.90
15656;DHT22;7928;43.614;1.456;2023-02-23T02:47:18;10.50;99.90
15656;DHT22;7928;43.614;1.456;2023-02-23T02:49:53;10.50;99.90
15656;DHT22;7928;43.614;1.456;2023-02-23T02:52:27;10.50;99.90
15656;DHT22;7928;43.614;1.456;2023-02-23T02:55:02;10.50;99.90
15656;DHT22;7928;43.614;1.456;2023-02-23T02:57:34;10.50;99.90
15656;DHT22;7928;43.614;1.456;2023-02-23T03:00:01;10.50;99.90
15656;DHT22;7928;43.614;1.456;2023-02-23T03:02:46;10.50;99.90
15656;DHT22;7928;43.614;1.456;2023-02-23T03:05:37;10.40;99.90
15656;DHT22;7928;43.614;1.456;2023-02-23T03:08:29;10.40;99.90
15656;DHT22;7928;43.614;1.456;2023-02-23T03:11:18;10.30;99.90
15656;DHT22;7928;43.614;1.456;2023-02-23T03:14:15;10.20;99.90
15656;DHT22;7928;43.614;1.456;2023-02-23T03:17:06;10.10;99.90
15656;DHT22;7928;43.614;1.456;2023-02-23T03:19:57;10.00;99.90
15656;DHT22;7928;43.614;1.456;2023-02-23T03:22:52;10.00;99.90
15656;DHT22;7928;43.614;1.456;2023-02-23T03:25:47;9.90;99.90
15656;DHT22;7928;43.614;1.456;2023-02-23T03:28:38;9.90;99.90
15656;DHT22;7928;43.614;1.456;2023-02-23T03:31:29;9.80;99.90
15656;DHT22;7928;43.614;1.456;2023-02-23T03:34:17;9.80;99.90
15656;DHT22;7928;43.614;1.456;2023-02-23T03:37:07;9.80;99.90
15656;DHT22;7928;43.614;1.456;2023-02-23T03:39:58;9.80;99.90
15656;DHT22;7928;43.614;1.456;2023-02-23T03:42:43;9.80;99.90
15656;DHT22;7928;43.614;1.456;2023-02-23T03:45:29;9.70;99.90
15656;DHT22;7928;43.614;1.456;2023-02-23T03:48:15;9.70;99.90
15656;DHT22;7928;43.614;1.456;2023-02-23T03:51:06;9.70;99.90
15656;DHT22;7928;43.614;1.456;2023-02-23T03:53:55;9.60;99.90
15656;DHT22;7928;43.614;1.456;2023-02-23T03:56:44;9.50;99.90
15656;DHT22;7928;43.614;1.456;2023-02-23T03:59:31;9.50;99.90
15656;DHT22;7928;43.614;1.456;2023-02-23T04:02:20;9.50;99.90
15656;DHT22;7928;43.614;1.456;2023-02-23T04:05:10;9.50;99.90
15656;DHT22;7928;43.614;1.456;2023-02-23T04:07:59;9.50;99.90
15656;DHT22;7928;43.614;1.456;2023-02-23T04:10:49;9.50;99.90
15656;DHT22;7928;43.614;1.456;2023-02-23T04:13:37;9.50;99.90
15656;DHT22;7928;43.614;1.456;2023-02-23T04:16:06;9.50;99.90
15656;DHT22;7928;43.614;1.456;2023-02-23T04:18:35;9.50;99.90
15656;DHT22;7928;43.614;1.456;2023-02-23T04:21:02;9.40;99.90
15656;DHT22;7928;43.614;1.456;2023-02-23T04:23:30;9.50;99.90
15656;DHT22;7928;43.614;1.456;2023-02-23T04:25:57;9.50;99.90
15656;DHT22;7928;43.614;1.456;2023-02-23T04:28:28;9.40;99.90
15656;DHT22;7928;43.614;1.456;2023-02-23T04:30:55;9.40;99.90
15656;DHT22;7928;43.614;1.456;2023-02-23T04:33:22;9.40;99.90
15656;DHT22;7928;43.614;1.456;2023-02-23T04:35:52;9.40;99.90
15656;DHT22;7928;43.614;1.456;2023-02-23T04:38:20;9.40;99.90
15656;DHT22;7928;43.614;1.456;2023-02-23T04:40:47;9.30;99.90
15656;DHT22;7928;43.614;1.456;2023-02-23T04:43:14;9.30;99.90
15656;DHT22;7928;43.614;1.456;2023-02-23T04:45:41;9.20;99.90
15656;DHT22;7928;43.614;1.456;2023-02-23T04:48:09;9.10;99.90
15656;DHT22;7928;43.614;1.456;2023-02-23T04:50:36;9.10;99.90
15656;DHT22;7928;43.614;1.456;2023-02-23T04:53:05;9.00;99.90
15656;DHT22;7928;43.614;1.456;2023-02-23T04:55:32;9.00;99.90
15656;DHT22;7928;43.614;1.456;2023-02-23T04:58:00;9.00;99.90
15656;DHT22;7928;43.614;1.456;2023-02-23T05:00:28;9.00;99.90
15656;DHT22;7928;43.614;1.456;2023-02-23T05:02:56;8.80;99.90
15656;DHT22;7928;43.614;1.456;2023-02-23T05:05:23;8.80;99.90
15656;DHT22;7928;43.614;1.456;2023-02-23T05:07:50;8.70;99.90
15656;DHT22;7928;43.614;1.456;2023-02-23T05:10:19;8.70;99.90
15656;DHT22;7928;43.614;1.456;2023-02-23T05:12:46;8.80;99.90
15656;DHT22;7928;43.614;1.456;2023-02-23T05:15:13;8.80;99.90
15656;DHT22;7928;43.614;1.456;2023-02-23T05:17:41;8.90;99.90
15656;DHT22;7928;43.614;1.456;2023-02-23T05:20:09;8.80;99.90
15656;DHT22;7928;43.614;1.456;2023-02-23T05:22:37;8.90;99.90
15656;DHT22;7928;43.614;1.456;2023-02-23T05:25:04;8.90;99.90
15656;DHT22;7928;43.614;1.456;2023-02-23T05:27:33;8.90;99.90
15656;DHT22;7928;43.614;1.456;2023-02-23T05:30:01;8.80;99.90
15656;DHT22;7928;43.614;1.456;2023-02-23T05:32:28;8.80;99.90
15656;DHT22;7928;43.614;1.456;2023-02-23T05:34:55;8.80;99.90
15656;DHT22;7928;43.614;1.456;2023-02-23T05:37:22;8.90;99.90
15656;DHT22;7928;43.614;1.456;2023-02-23T05:39:49;8.80;99.90
15656;DHT22;7928;43.614;1.456;2023-02-23T05:42:16;8.60;99.90
15656;DHT22;7928;43.614;1.456;2023-02-23T05:44:45;8.70;99.90
15656;DHT22;7928;43.614;1.456;2023-02-23T05:47:12;8.70;99.90
15656;DHT22;7928;43.614;1.456;2023-02-23T05:49:39;8.70;99.90
15656;DHT22;7928;43.614;1.456;2023-02-23T05:52:06;8.70;99.90
15656;DHT22;7928;43.614;1.456;2023-02-23T05:54:33;8.70;99.90
15656;DHT22;7928;43.614;1.456;2023-02-23T05:57:00;8.80;99.90
15656;DHT22;7928;43.614;1.456;2023-02-23T05:59:27;8.80;99.90
15656;DHT22;7928;43.614;1.456;2023-02-23T06:01:55;8.80;99.90
15656;DHT22;7928;43.614;1.456;2023-02-23T06:04:22;8.80;99.90
15656;DHT22;7928;43.614;1.456;2023-02-23T06:06:49;8.70;99.90
15656;DHT22;7928;43.614;1.456;2023-02-23T06:09:16;8.70;99.90
15656;DHT22;7928;43.614;1.456;2023-02-23T06:11:43;8.80;99.90
15656;DHT22;7928;43.614;1.456;2023-02-23T06:14:10;8.90;99.90
15656;DHT22;7928;43.614;1.456;2023-02-23T06:16:38;9.00;99.90
15656;DHT22;7928;43.614;1.456;2023-02-23T06:19:06;8.90;99.90
15656;DHT22;7928;43.614;1.456;2023-02-23T06:21:33;8.80;99.90
15656;DHT22;7928;43.614;1.456;2023-02-23T06:24:00;8.90;99.90
15656;DHT22;7928;43.614;1.456;2023-02-23T06:26:27;8.90;99.90
15656;DHT22;7928;43.614;1.456;2023-02-23T06:28:54;8.80;99.90
15656;DHT22;7928;43.614;1.456;2023-02-23T06:31:22;8.70;99.90
15656;DHT22;7928;43.614;1.456;2023-02-23T06:33:49;8.70;99.90
15656;DHT22;7928;43.614;1.456;2023-02-23T06:36:17;8.70;99.90
15656;DHT22;7928;43.614;1.456;2023-02-23T06:38:44;8.60;99.90
15656;DHT22;7928;43.614;1.456;2023-02-23T06:41:12;8.70;99.90
15656;DHT22;7928;43.614;1.456;2023-02-23T06:43:39;8.70;99.90
15656;DHT22;7928;43.614;1.456;2023-02-23T06:46:06;8.70;99.90
15656;DHT22;7928;43.614;1.456;2023-02-23T06:48:33;8.70;99.90
15656;DHT22;7928;43.614;1.456;2023-02-23T06:51:01;8.80;99.90
15656;DHT22;7928;43.614;1.456;2023-02-23T06:53:29;8.80;99.90
15656;DHT22;7928;43.614;1.456;2023-02-23T06:55:56;8.90;99.90
15656;DHT22;7928;43.614;1.456;2023-02-23T06:58:23;8.90;99.90
15656;DHT22;7928;43.614;1.456;2023-02-23T07:00:50;9.00;99.90
15656;DHT22;7928;43.614;1.456;2023-02-23T07:03:18;8.90;99.90
15656;DHT22;7928;43.614;1.456;2023-02-23T07:05:45;8.90;99.90
15656;DHT22;7928;43.614;1.456;2023-02-23T07:08:12;9.00;99.90
15656;DHT22;7928;43.614;1.456;2023-02-23T07:10:41;9.00;99.90
15656;DHT22;7928;43.614;1.456;2023-02-23T07:13:08;8.90;99.90
15656;DHT22;7928;43.614;1.456;2023-02-23T07:15:38;8.90;99.90
15656;DHT22;7928;43.614;1.456;2023-02-23T07:18:06;8.90;99.90
15656;DHT22;7928;43.614;1.456;2023-02-23T07:20:33;9.00;99.90
15656;DHT22;7928;43.614;1.456;2023-02-23T07:23:00;9.10;99.90
15656;DHT22;7928;43.614;1.456;2023-02-23T07:25:27;9.10;99.90
15656;DHT22;7928;43.614;1.456;2023-02-23T07:27:56;9.30;99.90
15656;DHT22;7928;43.614;1.456;2023-02-23T07:30:24;9.50;99.90
15656;DHT22;7928;43.614;1.456;2023-02-23T07:32:51;9.60;99.90
15656;DHT22;7928;43.614;1.456;2023-02-23T07:35:18;9.80;99.90
15656;DHT22;7928;43.614;1.456;2023-02-23T07:37:46;9.90;99.90
15656;DHT22;7928;43.614;1.456;2023-02-23T07:40:13;10.00;99.90
15656;DHT22;7928;43.614;1.456;2023-02-23T07:42:40;10.10;99.90
15656;DHT22;7928;43.614;1.456;2023-02-23T07:45:09;10.10;99.90
15656;DHT22;7928;43.614;1.456;2023-02-23T07:47:37;10.10;99.90
15656;DHT22;7928;43.614;1.456;2023-02-23T07:50:05;10.20;99.90
15656;DHT22;7928;43.614;1.456;2023-02-23T07:52:35;10.10;99.90
15656;DHT22;7928;43.614;1.456;2023-02-23T07:55:03;10.10;99.90
15656;DHT22;7928;43.614;1.456;2023-02-23T07:57:31;10.10;99.90
15656;DHT22;7928;43.614;1.456;2023-02-23T07:59:58;10.10;99.90
15656;DHT22;7928;43.614;1.456;2023-02-23T08:02:27;9.40;99.90
15656;DHT22;7928;43.614;1.456;2023-02-23T08:04:54;10.20;99.90
15656;DHT22;7928;43.614;1.456;2023-02-23T08:07:22;10.20;99.90
15656;DHT22;7928;43.614;1.456;2023-02-23T08:09:50;10.20;99.90
15656;DHT22;7928;43.614;1.456;2023-02-23T08:12:18;10.20;99.90
15656;DHT22;7928;43.614;1.456;2023-02-23T08:14:45;10.20;99.90
15656;DHT22;7928;43.614;1.456;2023-02-23T08:17:12;10.30;99.90
15656;DHT22;7928;43.614;1.456;2023-02-23T08:19:50;10.40;99.90
15656;DHT22;7928;43.614;1.456;2023-02-23T08:22:17;10.40;99.90
15656;DHT22;7928;43.614;1.456;2023-02-23T08:24:45;10.40;99.90
15656;DHT22;7928;43.614;1.456;2023-02-23T08:27:12;10.40;99.90
15656;DHT22;7928;43.614;1.456;2023-02-23T08:29:39;10.40;99.90
15656;DHT22;7928;43.614;1.456;2023-02-23T08:32:06;10.50;99.90
15656;DHT22;7928;43.614;1.456;2023-02-23T08:34:37;10.50;99.90
15656;DHT22;7928;43.614;1.456;2023-02-23T08:37:06;10.50;99.90
15656;DHT22;7928;43.614;1.456;2023-02-23T08:39:33;10.50;99.90
15656;DHT22;7928;43.614;1.456;2023-02-23T08:42:00;10.50;99.90
15656;DHT22;7928;43.614;1.456;2023-02-23T08:44:27;10.60;99.90
15656;DHT22;7928;43.614;1.456;2023-02-23T08:46:54;10.60;99.90
15656;DHT22;7928;43.614;1.456;2023-02-23T08:49:23;10.60;99.90
15656;DHT22;7928;43.614;1.456;2023-02-23T08:51:50;10.50;99.90
15656;DHT22;7928;43.614;1.456;2023-02-23T08:54:18;10.40;99.90
15656;DHT22;7928;43.614;1.456;2023-02-23T08:56:45;10.40;99.90
15656;DHT22;7928;43.614;1.456;2023-02-23T08:59:13;10.30;99.90
15656;DHT22;7928;43.614;1.456;2023-02-23T09:01:41;10.30;99.90
15656;DHT22;7928;43.614;1.456;2023-02-23T09:04:08;10.20;99.90
15656;DHT22;7928;43.614;1.456;2023-02-23T09:06:36;10.10;99.90
15656;DHT22;7928;43.614;1.456;2023-02-23T09:09:03;10.20;99.90
15656;DHT22;7928;43.614;1.456;2023-02-23T09:11:31;10.20;99.90
15656;DHT22;7928;43.614;1.456;2023-02-23T09:13:58;10.20;99.90
15656;DHT22;7928;43.614;1.456;2023-02-23T09:16:25;10.10;99.90
15656;DHT22;7928;43.614;1.456;2023-02-23T09:18:53;10.10;99.90
15656;DHT22;7928;43.614;1.456;2023-02-23T09:21:20;10.20;99.90
15656;DHT22;7928;43.614;1.456;2023-02-23T09:23:49;10.20;99.90
15656;DHT22;7928;43.614;1.456;2023-02-23T09:26:18;10.20;99.90
15656;DHT22;7928;43.614;1.456;2023-02-23T09:28:47;10.20;99.90
15656;DHT22;7928;43.614;1.456;2023-02-23T09:31:16;10.20;99.90
15656;DHT22;7928;43.614;1.456;2023-02-23T09:33:44;10.10;99.90
15656;DHT22;7928;43.614;1.456;2023-02-23T09:36:12;10.20;99.90
15656;DHT22;7928;43.614;1.456;2023-02-23T09:38:41;10.20;99.90
15656;DHT22;7928;43.614;1.456;2023-02-23T09:41:41;10.20;99.90
15656;DHT22;7928;43.614;1.456;2023-02-23T09:44:20;10.20;99.90
15656;DHT22;7928;43.614;1.456;2023-02-23T09:46:58;10.00;99.90
15656;DHT22;7928;43.614;1.456;2023-02-23T09:49:35;9.80;99.90
15656;DHT22;7928;43.614;1.456;2023-02-23T09:52:04;9.60;99.90
15656;DHT22;7928;43.614;1.456;2023-02-23T09:54:33;11.80;99.90
15656;DHT22;7928;43.614;1.456;2023-02-23T09:57:03;9.60;99.90
15656;DHT22;7928;43.614;1.456;2023-02-23T09:59:33;9.40;99.90
15656;DHT22;7928;43.614;1.456;2023-02-23T10:02:04;9.30;99.90
15656;DHT22;7928;43.614;1.456;2023-02-23T10:04:40;9.20;99.90
15656;DHT22;7928;43.614;1.456;2023-02-23T10:07:12;9.20;99.90
15656;DHT22;7928;43.614;1.456;2023-02-23T10:09:54;9.20;99.90
15656;DHT22;7928;43.614;1.456;2023-02-23T10:12:29;9.30;99.90
15656;DHT22;7928;43.614;1.456;2023-02-23T10:15:12;9.20;99.90
15656;DHT22;7928;43.614;1.456;2023-02-23T10:17:45;9.10;99.90
15656;DHT22;7928;43.614;1.456;2023-02-23T10:20:21;8.90;99.90
15656;DHT22;7928;43.614;1.456;2023-02-23T10:22:50;8.70;99.90
15656;DHT22;7928;43.614;1.456;2023-02-23T10:25:20;8.80;99.90
15656;DHT22;7928;43.614;1.456;2023-02-23T10:27:50;8.80;99.90
15656;DHT22;7928;43.614;1.456;2023-02-23T10:30:23;8.80;99.90
15656;DHT22;7928;43.614;1.456;2023-02-23T10:32:54;8.60;99.90
15656;DHT22;7928;43.614;1.456;2023-02-23T10:35:23;8.60;99.90
15656;DHT22;7928;43.614;1.456;2023-02-23T10:37:51;8.50;99.90
15656;DHT22;7928;43.614;1.456;2023-02-23T10:40:20;8.40;99.90
15656;DHT22;7928;43.614;1.456;2023-02-23T10:42:48;8.40;99.90
15656;DHT22;7928;43.614;1.456;2023-02-23T10:45:17;8.30;99.90
15656;DHT22;7928;43.614;1.456;2023-02-23T10:47:51;8.30;99.90
15656;DHT22;7928;43.614;1.456;2023-02-23T10:50:19;8.20;99.90
15656;DHT22;7928;43.614;1.456;2023-02-23T10:52:48;8.30;99.90
15656;DHT22;7928;43.614;1.456;2023-02-23T10:55:22;8.40;99.90
15656;DHT22;7928;43.614;1.456;2023-02-23T10:58:01;8.30;99.90
15656;DHT22;7928;43.614;1.456;2023-02-23T11:00:29;8.20;99.90
15656;DHT22;7928;43.614;1.456;2023-02-23T11:03:00;8.20;99.90
15656;DHT22;7928;43.614;1.456;2023-02-23T11:05:35;8.30;99.90
15656;DHT22;7928;43.614;1.456;2023-02-23T11:08:24;8.30;99.90
15656;DHT22;7928;43.614;1.456;2023-02-23T11:11:02;8.30;99.90
15656;DHT22;7928;43.614;1.456;2023-02-23T11:13:38;8.30;99.90
15656;DHT22;7928;43.614;1.456;2023-02-23T11:16:08;8.20;99.90
15656;DHT22;7928;43.614;1.456;2023-02-23T11:18:41;8.20;99.90
15656;DHT22;7928;43.614;1.456;2023-02-23T11:21:11;8.20;99.90
15656;DHT22;7928;43.614;1.456;2023-02-23T11:23:39;8.20;99.90
15656;DHT22;7928;43.614;1.456;2023-02-23T11:26:23;8.20;99.90
15656;DHT22;7928;43.614;1.456;2023-02-23T11:28:55;8.10;99.90
15656;DHT22;7928;43.614;1.456;2023-02-23T11:31:29;8.10;99.90
15656;DHT22;7928;43.614;1.456;2023-02-23T11:33:58;8.10;99.90
15656;DHT22;7928;43.614;1.456;2023-02-23T11:36:27;8.10;99.90
15656;DHT22;7928;43.614;1.456;2023-02-23T11:39:05;8.00;99.90
15656;DHT22;7928;43.614;1.456;2023-02-23T11:41:34;8.00;99.90
15656;DHT22;7928;43.614;1.456;2023-02-23T11:44:02;8.10;99.90
15656;DHT22;7928;43.614;1.456;2023-02-23T11:46:31;8.00;99.90
15656;DHT22;7928;43.614;1.456;2023-02-23T11:49:04;8.00;99.90
15656;DHT22;7928;43.614;1.456;2023-02-23T11:51:34;7.80;99.90
15656;DHT22;7928;43.614;1.456;2023-02-23T11:54:03;7.80;99.90
15656;DHT22;7928;43.614;1.456;2023-02-23T11:56:32;7.90;99.90
15656;DHT22;7928;43.614;1.456;2023-02-23T11:59:02;7.90;99.90
15656;DHT22;7928;43.614;1.456;2023-02-23T12:01:38;7.90;99.90
15656;DHT22;7928;43.614;1.456;2023-02-23T12:04:25;7.90;99.90
15656;DHT22;7928;43.614;1.456;2023-02-23T12:09:39;8.10;99.90
15656;DHT22;7928;43.614;1.456;2023-02-23T12:12:12;8.20;99.90
15656;DHT22;7928;43.614;1.456;2023-02-23T12:14:42;8.20;99.90
15656;DHT22;7928;43.614;1.456;2023-02-23T12:17:15;8.20;99.90
15656;DHT22;7928;43.614;1.456;2023-02-23T12:19:48;8.30;99.90
15656;DHT22;7928;43.614;1.456;2023-02-23T12:22:19;8.30;99.90
15656;DHT22;7928;43.614;1.456;2023-02-23T12:24:51;8.30;99.90
15656;DHT22;7928;43.614;1.456;2023-02-23T12:27:22;8.20;99.90
15656;DHT22;7928;43.614;1.456;2023-02-23T12:30:02;8.30;99.90
15656;DHT22;7928;43.614;1.456;2023-02-23T12:32:41;8.30;99.90
15656;DHT22;7928;43.614;1.456;2023-02-23T12:35:15;8.30;99.90
15656;DHT22;7928;43.614;1.456;2023-02-23T12:37:47;8.30;99.90
15656;DHT22;7928;43.614;1.456;2023-02-23T12:40:18;8.30;99.90
15656;DHT22;7928;43.614;1.456;2023-02-23T12:42:56;8.10;99.90
15656;DHT22;7928;43.614;1.456;2023-02-23T12:45:31;8.10;99.90
15656;DHT22;7928;43.614;1.456;2023-02-23T12:48:07;8.10;99.90
15656;DHT22;7928;43.614;1.456;2023-02-23T12:50:41;8.10;99.90
15656;DHT22;7928;43.614;1.456;2023-02-23T12:53:18;8.30;99.90
15656;DHT22;7928;43.614;1.456;2023-02-23T12:55:55;8.30;99.90
15656;DHT22;7928;43.614;1.456;2023-02-23T12:58:32;8.40;99.90
15656;DHT22;7928;43.614;1.456;2023-02-23T13:01:03;8.40;99.90
15656;DHT22;7928;43.614;1.456;2023-02-23T13:03:54;8.40;99.90
15656;DHT22;7928;43.614;1.456;2023-02-23T13:06:32;8.50;99.90
15656;DHT22;7928;43.614;1.456;2023-02-23T13:09:16;8.60;99.90
15656;DHT22;7928;43.614;1.456;2023-02-23T13:12:02;8.70;99.90
15656;DHT22;7928;43.614;1.456;2023-02-23T13:14:37;8.70;99.90
15656;DHT22;7928;43.614;1.456;2023-02-23T13:17:18;8.70;99.90
15656;DHT22;7928;43.614;1.456;2023-02-23T13:19:52;8.60;99.90
15656;DHT22;7928;43.614;1.456;2023-02-23T13:22:27;8.60;99.90
15656;DHT22;7928;43.614;1.456;2023-02-23T13:25:20;8.60;99.90
15656;DHT22;7928;43.614;1.456;2023-02-23T13:27:54;8.70;99.90
15656;DHT22;7928;43.614;1.456;2023-02-23T13:30:21;8.60;99.90
15656;DHT22;7928;43.614;1.456;2023-02-23T13:32:48;8.60;99.90
15656;DHT22;7928;43.614;1.456;2023-02-23T13:35:17;8.70;99.90
15656;DHT22;7928;43.614;1.456;2023-02-23T13:37:50;8.10;99.90
15656;DHT22;7928;43.614;1.456;2023-02-23T13:40:26;8.90;99.90
15656;DHT22;7928;43.614;1.456;2023-02-23T13:43:01;8.80;99.90
15656;DHT22;7928;43.614;1.456;2023-02-23T13:48:41;8.60;99.90
15656;DHT22;7928;43.614;1.456;2023-02-23T13:51:16;8.50;99.90
15656;DHT22;7928;43.614;1.456;2023-02-23T13:53:58;8.60;99.90
15656;DHT22;7928;43.614;1.456;2023-02-23T13:56:27;8.60;99.90
15656;DHT22;7928;43.614;1.456;2023-02-23T13:58:58;8.60;99.90
15656;DHT22;7928;43.614;1.456;2023-02-23T14:01:29;8.60;99.90
15656;DHT22;7928;43.614;1.456;2023-02-23T14:03:58;8.50;99.90
15656;DHT22;7928;43.614;1.456;2023-02-23T14:06:28;8.50;99.90
15656;DHT22;7928;43.614;1.456;2023-02-23T14:08:58;8.50;99.90
15656;DHT22;7928;43.614;1.456;2023-02-23T14:11:46;8.50;99.90
15656;DHT22;7928;43.614;1.456;2023-02-23T14:14:38;8.50;99.90
15656;DHT22;7928;43.614;1.456;2023-02-23T14:17:38;8.40;99.90
15656;DHT22;7928;43.614;1.456;2023-02-23T14:20:20;8.60;99.90
15656;DHT22;7928;43.614;1.456;2023-02-23T14:23:26;8.60;99.90
15656;DHT22;7928;43.614;1.456;2023-02-23T14:26:11;8.60;99.90
15656;DHT22;7928;43.614;1.456;2023-02-23T14:28:42;8.60;99.90
15656;DHT22;7928;43.614;1.456;2023-02-23T14:31:18;8.60;99.90
15656;DHT22;7928;43.614;1.456;2023-02-23T14:33:56;8.60;99.90
15656;DHT22;7928;43.614;1.456;2023-02-23T14:36:35;8.50;99.90
15656;DHT22;7928;43.614;1.456;2023-02-23T14:39:08;8.50;99.90
15656;DHT22;7928;43.614;1.456;2023-02-23T14:41:42;8.60;99.90
15656;DHT22;7928;43.614;1.456;2023-02-23T14:44:13;8.60;99.90
15656;DHT22;7928;43.614;1.456;2023-02-23T14:46:48;8.70;99.90
15656;DHT22;7928;43.614;1.456;2023-02-23T14:49:19;8.70;99.90
15656;DHT22;7928;43.614;1.456;2023-02-23T14:51:48;8.60;99.90
15656;DHT22;7928;43.614;1.456;2023-02-23T14:54:25;8.60;99.90
15656;DHT22;7928;43.614;1.456;2023-02-23T14:56:56;8.70;99.90
15656;DHT22;7928;43.614;1.456;2023-02-23T14:59:25;8.70;99.90
15656;DHT22;7928;43.614;1.456;2023-02-23T15:01:53;8.70;99.90
15656;DHT22;7928;43.614;1.456;2023-02-23T15:04:22;8.70;99.90
15656;DHT22;7928;43.614;1.456;2023-02-23T15:06:52;8.90;99.90
15656;DHT22;7928;43.614;1.456;2023-02-23T15:09:28;8.90;99.90
15656;DHT22;7928;43.614;1.456;2023-02-23T15:12:02;8.90;99.90
15656;DHT22;7928;43.614;1.456;2023-02-23T15:14:32;8.80;99.90
15656;DHT22;7928;43.614;1.456;2023-02-23T15:17:02;8.60;99.90
15656;DHT22;7928;43.614;1.456;2023-02-23T15:19:32;8.70;99.90
15656;DHT22;7928;43.614;1.456;2023-02-23T15:22:01;8.80;99.90
15656;DHT22;7928;43.614;1.456;2023-02-23T15:24:32;8.80;99.90
15656;DHT22;7928;43.614;1.456;2023-02-23T15:27:00;8.80;99.90
15656;DHT22;7928;43.614;1.456;2023-02-23T15:29:31;8.80;99.90
15656;DHT22;7928;43.614;1.456;2023-02-23T15:32:11;8.90;99.90
15656;DHT22;7928;43.614;1.456;2023-02-23T15:34:40;8.80;99.90
15656;DHT22;7928;43.614;1.456;2023-02-23T15:37:13;8.80;99.90
15656;DHT22;7928;43.614;1.456;2023-02-23T15:39:46;8.60;99.90
15656;DHT22;7928;43.614;1.456;2023-02-23T15:42:23;8.70;99.90
15656;DHT22;7928;43.614;1.456;2023-02-23T15:44:57;8.70;99.90
15656;DHT22;7928;43.614;1.456;2023-02-23T15:47:30;8.60;99.90
15656;DHT22;7928;43.614;1.456;2023-02-23T15:50:12;8.60;99.90
15656;DHT22;7928;43.614;1.456;2023-02-23T15:52:45;8.60;99.90
15656;DHT22;7928;43.614;1.456;2023-02-23T15:55:19;8.60;99.90
15656;DHT22;7928;43.614;1.456;2023-02-23T15:57:54;8.60;99.90
15656;DHT22;7928;43.614;1.456;2023-02-23T16:00:28;8.50;99.90
15656;DHT22;7928;43.614;1.456;2023-02-23T16:02:59;8.40;99.90
15656;DHT22;7928;43.614;1.456;2023-02-23T16:05:28;8.40;99.90
15656;DHT22;7928;43.614;1.456;2023-02-23T16:08:04;8.40;99.90
15656;DHT22;7928;43.614;1.456;2023-02-23T16:10:44;8.40;99.90
15656;DHT22;7928;43.614;1.456;2023-02-23T16:13:16;8.30;99.90
15656;DHT22;7928;43.614;1.456;2023-02-23T16:15:46;8.40;99.90
15656;DHT22;7928;43.614;1.456;2023-02-23T16:18:15;8.40;99.90
15656;DHT22;7928;43.614;1.456;2023-02-23T16:20:46;8.50;99.90
15656;DHT22;7928;43.614;1.456;2023-02-23T16:23:25;8.50;99.90
15656;DHT22;7928;43.614;1.456;2023-02-23T16:25:55;8.50;99.90
15656;DHT22;7928;43.614;1.456;2023-02-23T16:28:28;8.60;99.90
15656;DHT22;7928;43.614;1.456;2023-02-23T16:30:59;8.60;99.90
15656;DHT22;7928;43.614;1.456;2023-02-23T16:33:27;8.60;99.90
15656;DHT22;7928;43.614;1.456;2023-02-23T16:36:11;8.60;99.90
15656;DHT22;7928;43.614;1.456;2023-02-23T16:38:44;8.50;99.90
15656;DHT22;7928;43.614;1.456;2023-02-23T16:41:15;8.40;99.90
15656;DHT22;7928;43.614;1.456;2023-02-23T16:43:46;8.30;99.90
15656;DHT22;7928;43.614;1.456;2023-02-23T16:46:14;8.40;99.90